sensor_id;sensor_type;location;lat;lon;timestamp;P1;durP1;ratioP1;P2;durP2;ratioP2
29854;SDS011;16733;48.738;9.106;2022-11-06T00:02:04;13.05;;;5.97;;
29854;SDS011;16733;48.738;9.106;2022-11-06T00:04:30;13.23;;;5.53;;
29854;SDS011;16733;48.738;9.106;2022-11-06T00:06:55;16.17;;;7.00;;
29854;SDS011;16733;48.738;9.106;2022-11-06T00:09:21;12.27;;;6.22;;
29854;SDS011;16733;48.738;9.106;2022-11-06T00:11:48;11.77;;;6.82;;
29854;SDS011;16733;48.738;9.106;2022-11-06T00:14:14;14.77;;;6.50;;
29854;SDS011;16733;48.738;9.106;2022-11-06T00:16:41;10.70;;;6.13;;
29854;SDS011;16733;48.738;9.106;2022-11-06T00:19:07;12.82;;;5.82;;
29854;SDS011;16733;48.738;9.106;2022-11-06T00:28:55;9.98;;;5.95;;
29854;SDS011;16733;48.738;9.106;2022-11-06T00:31:22;12.23;;;6.72;;
29854;SDS011;16733;48.738;9.106;2022-11-06T00:37:11;13.40;;;6.07;;
29854;SDS011;16733;48.738;9.106;2022-11-06T00:39:37;10.50;;;5.80;;
29854;SDS011;16733;48.738;9.106;2022-11-06T00:42:02;13.43;;;6.05;;
29854;SDS011;16733;48.738;9.106;2022-11-06T00:45:06;16.35;;;6.28;;
29854;SDS011;16733;48.738;9.106;2022-11-06T00:47:32;10.63;;;6.47;;
29854;SDS011;16733;48.738;9.106;2022-11-06T00:49:58;11.00;;;6.00;;
29854;SDS011;16733;48.738;9.106;2022-11-06T00:52:23;10.05;;;5.95;;
29854;SDS011;16733;48.738;9.106;2022-11-06T00:58:11;11.13;;;5.95;;
29854;SDS011;16733;48.738;9.106;2022-11-06T01:00:36;9.95;;;6.15;;
29854;SDS011;16733;48.738;9.106;2022-11-06T01:06:25;14.05;;;5.75;;
29854;SDS011;16733;48.738;9.106;2022-11-06T01:08:53;11.20;;;6.47;;
29854;SDS011;16733;48.738;9.106;2022-11-06T01:11:21;14.38;;;6.32;;
29854;SDS011;16733;48.738;9.106;2022-11-06T01:13:49;12.65;;;6.68;;
29854;SDS011;16733;48.738;9.106;2022-11-06T01:23:00;10.48;;;5.47;;
29854;SDS011;16733;48.738;9.106;2022-11-06T01:25:26;15.05;;;6.07;;
29854;SDS011;16733;48.738;9.106;2022-11-06T01:27:51;10.80;;;6.60;;
29854;SDS011;16733;48.738;9.106;2022-11-06T01:33:39;9.13;;;5.72;;
29854;SDS011;16733;48.738;9.106;2022-11-06T01:36:04;11.65;;;6.53;;
29854;SDS011;16733;48.738;9.106;2022-11-06T01:41:54;10.43;;;5.82;;
29854;SDS011;16733;48.738;9.106;2022-11-06T01:46:58;7.72;;;5.20;;
29854;SDS011;16733;48.738;9.106;2022-11-06T01:49:26;14.05;;;7.50;;
29854;SDS011;16733;48.738;9.106;2022-11-06T01:51:55;14.65;;;6.28;;
29854;SDS011;16733;48.738;9.106;2022-11-06T01:54:23;10.43;;;6.15;;
29854;SDS011;16733;48.738;9.106;2022-11-06T01:56:52;14.55;;;6.28;;
29854;SDS011;16733;48.738;9.106;2022-11-06T02:02:42;9.05;;;5.53;;
29854;SDS011;16733;48.738;9.106;2022-11-06T02:05:08;10.98;;;6.28;;
29854;SDS011;16733;48.738;9.106;2022-11-06T02:07:33;14.43;;;6.70;;
29854;SDS011;16733;48.738;9.106;2022-11-06T02:10:00;11.38;;;5.65;;
29854;SDS011;16733;48.738;9.106;2022-11-06T02:20:40;10.20;;;5.78;;
29854;SDS011;16733;48.738;9.106;2022-11-06T02:29:08;10.48;;;5.32;;
29854;SDS011;16733;48.738;9.106;2022-11-06T02:31:40;9.68;;;4.68;;
29854;SDS011;16733;48.738;9.106;2022-11-06T02:34:09;9.98;;;5.32;;
29854;SDS011;16733;48.738;9.106;2022-11-06T02:36:39;12.55;;;6.15;;
29854;SDS011;16733;48.738;9.106;2022-11-06T02:39:19;15.35;;;5.70;;
29854;SDS011;16733;48.738;9.106;2022-11-06T02:41:48;8.70;;;5.47;;
29854;SDS011;16733;48.738;9.106;2022-11-06T02:44:17;9.15;;;5.38;;
29854;SDS011;16733;48.738;9.106;2022-11-06T02:46:56;10.88;;;6.28;;
29854;SDS011;16733;48.738;9.106;2022-11-06T02:52:04;11.45;;;5.60;;
29854;SDS011;16733;48.738;9.106;2022-11-06T02:54:34;13.40;;;6.20;;
29854;SDS011;16733;48.738;9.106;2022-11-06T02:57:06;9.95;;;5.78;;
29854;SDS011;16733;48.738;9.106;2022-11-06T03:02:29;15.38;;;5.80;;
29854;SDS011;16733;48.738;9.106;2022-11-06T03:05:16;14.45;;;6.13;;
29854;SDS011;16733;48.738;9.106;2022-11-06T03:11:22;13.82;;;7.00;;
29854;SDS011;16733;48.738;9.106;2022-11-06T03:22:26;11.52;;;5.95;;
29854;SDS011;16733;48.738;9.106;2022-11-06T03:25:56;11.27;;;6.10;;
29854;SDS011;16733;48.738;9.106;2022-11-06T03:28:35;10.80;;;5.32;;
29854;SDS011;16733;48.738;9.106;2022-11-06T03:34:31;11.10;;;5.75;;
29854;SDS011;16733;48.738;9.106;2022-11-06T03:43:51;12.55;;;5.85;;
29854;SDS011;16733;48.738;9.106;2022-11-06T03:46:20;11.75;;;5.82;;
29854;SDS011;16733;48.738;9.106;2022-11-06T03:48:56;10.82;;;5.80;;
29854;SDS011;16733;48.738;9.106;2022-11-06T03:51:31;10.10;;;5.63;;
29854;SDS011;16733;48.738;9.106;2022-11-06T03:54:41;10.40;;;5.45;;
29854;SDS011;16733;48.738;9.106;2022-11-06T03:57:16;10.85;;;5.15;;
29854;SDS011;16733;48.738;9.106;2022-11-06T03:59:51;11.45;;;5.32;;
29854;SDS011;16733;48.738;9.106;2022-11-06T04:02:20;11.23;;;6.07;;
29854;SDS011;16733;48.738;9.106;2022-11-06T04:08:10;10.23;;;5.10;;
29854;SDS011;16733;48.738;9.106;2022-11-06T04:10:56;9.65;;;5.85;;
29854;SDS011;16733;48.738;9.106;2022-11-06T04:13:44;13.68;;;5.68;;
29854;SDS011;16733;48.738;9.106;2022-11-06T04:16:23;11.35;;;5.88;;
29854;SDS011;16733;48.738;9.106;2022-11-06T04:45:09;9.48;;;5.15;;
29854;SDS011;16733;48.738;9.106;2022-11-06T04:47:40;16.33;;;6.55;;
29854;SDS011;16733;48.738;9.106;2022-11-06T04:50:07;9.52;;;5.38;;
29854;SDS011;16733;48.738;9.106;2022-11-06T04:56:05;11.30;;;5.22;;
29854;SDS011;16733;48.738;9.106;2022-11-06T05:01:58;10.13;;;5.35;;
29854;SDS011;16733;48.738;9.106;2022-11-06T05:04:23;11.02;;;5.97;;
29854;SDS011;16733;48.738;9.106;2022-11-06T05:06:49;10.02;;;5.65;;
29854;SDS011;16733;48.738;9.106;2022-11-06T05:09:14;10.75;;;5.65;;
29854;SDS011;16733;48.738;9.106;2022-11-06T05:11:40;9.77;;;5.93;;
29854;SDS011;16733;48.738;9.106;2022-11-06T05:14:05;12.15;;;6.35;;
29854;SDS011;16733;48.738;9.106;2022-11-06T05:16:31;9.18;;;5.57;;
29854;SDS011;16733;48.738;9.106;2022-11-06T05:18:56;12.43;;;5.53;;
29854;SDS011;16733;48.738;9.106;2022-11-06T05:24:44;11.35;;;5.57;;
29854;SDS011;16733;48.738;9.106;2022-11-06T05:27:10;10.52;;;5.38;;
29854;SDS011;16733;48.738;9.106;2022-11-06T05:36:19;9.45;;;5.55;;
29854;SDS011;16733;48.738;9.106;2022-11-06T05:38:45;9.88;;;5.03;;
29854;SDS011;16733;48.738;9.106;2022-11-06T05:41:11;10.15;;;4.82;;
29854;SDS011;16733;48.738;9.106;2022-11-06T05:43:36;12.93;;;5.50;;
29854;SDS011;16733;48.738;9.106;2022-11-06T05:46:02;11.05;;;5.03;;
29854;SDS011;16733;48.738;9.106;2022-11-06T05:51:50;10.25;;;4.93;;
29854;SDS011;16733;48.738;9.106;2022-11-06T05:54:15;10.07;;;5.00;;
29854;SDS011;16733;48.738;9.106;2022-11-06T06:00:03;8.55;;;4.57;;
29854;SDS011;16733;48.738;9.106;2022-11-06T06:02:30;9.75;;;4.57;;
29854;SDS011;16733;48.738;9.106;2022-11-06T06:04:55;9.35;;;5.00;;
29854;SDS011;16733;48.738;9.106;2022-11-06T06:07:21;7.55;;;4.95;;
29854;SDS011;16733;48.738;9.106;2022-11-06T06:09:47;12.05;;;4.88;;
29854;SDS011;16733;48.738;9.106;2022-11-06T06:12:12;10.00;;;5.32;;
29854;SDS011;16733;48.738;9.106;2022-11-06T06:14:38;8.55;;;5.25;;
29854;SDS011;16733;48.738;9.106;2022-11-06T06:17:04;13.00;;;5.07;;
29854;SDS011;16733;48.738;9.106;2022-11-06T06:19:30;9.65;;;4.50;;
29854;SDS011;16733;48.738;9.106;2022-11-06T06:21:55;10.63;;;5.07;;
29854;SDS011;16733;48.738;9.106;2022-11-06T06:24:21;11.02;;;5.05;;
29854;SDS011;16733;48.738;9.106;2022-11-06T06:26:47;9.43;;;5.57;;
29854;SDS011;16733;48.738;9.106;2022-11-06T06:29:12;10.30;;;5.20;;
29854;SDS011;16733;48.738;9.106;2022-11-06T06:31:38;9.45;;;4.80;;
29854;SDS011;16733;48.738;9.106;2022-11-06T06:34:03;12.15;;;5.78;;
29854;SDS011;16733;48.738;9.106;2022-11-06T06:36:29;6.78;;;4.30;;
29854;SDS011;16733;48.738;9.106;2022-11-06T06:38:54;8.10;;;4.95;;
29854;SDS011;16733;48.738;9.106;2022-11-06T06:41:20;10.55;;;5.45;;
29854;SDS011;16733;48.738;9.106;2022-11-06T06:43:46;8.13;;;4.65;;
29854;SDS011;16733;48.738;9.106;2022-11-06T06:46:13;7.47;;;4.57;;
29854;SDS011;16733;48.738;9.106;2022-11-06T06:48:38;9.63;;;5.35;;
29854;SDS011;16733;48.738;9.106;2022-11-06T06:51:04;9.20;;;5.20;;
29854;SDS011;16733;48.738;9.106;2022-11-06T06:53:31;10.27;;;4.38;;
29854;SDS011;16733;48.738;9.106;2022-11-06T06:55:58;9.13;;;5.47;;
29854;SDS011;16733;48.738;9.106;2022-11-06T06:58:25;9.98;;;5.30;;
29854;SDS011;16733;48.738;9.106;2022-11-06T07:00:51;8.13;;;4.47;;
29854;SDS011;16733;48.738;9.106;2022-11-06T07:03:17;12.05;;;5.72;;
29854;SDS011;16733;48.738;9.106;2022-11-06T07:05:42;10.95;;;6.07;;
29854;SDS011;16733;48.738;9.106;2022-11-06T07:08:08;10.85;;;4.70;;
29854;SDS011;16733;48.738;9.106;2022-11-06T07:10:34;8.43;;;4.95;;
29854;SDS011;16733;48.738;9.106;2022-11-06T07:13:03;11.80;;;5.32;;
29854;SDS011;16733;48.738;9.106;2022-11-06T07:15:29;14.00;;;5.18;;
29854;SDS011;16733;48.738;9.106;2022-11-06T07:21:17;8.43;;;4.95;;
29854;SDS011;16733;48.738;9.106;2022-11-06T07:23:43;11.57;;;5.75;;
29854;SDS011;16733;48.738;9.106;2022-11-06T07:26:09;9.57;;;5.35;;
29854;SDS011;16733;48.738;9.106;2022-11-06T07:28:35;10.20;;;5.75;;
29854;SDS011;16733;48.738;9.106;2022-11-06T07:31:02;9.02;;;5.20;;
29854;SDS011;16733;48.738;9.106;2022-11-06T07:33:29;10.50;;;6.07;;
29854;SDS011;16733;48.738;9.106;2022-11-06T07:36:00;9.70;;;4.93;;
29854;SDS011;16733;48.738;9.106;2022-11-06T07:38:31;9.27;;;5.25;;
29854;SDS011;16733;48.738;9.106;2022-11-06T07:41:06;8.32;;;5.05;;
29854;SDS011;16733;48.738;9.106;2022-11-06T07:43:33;9.75;;;5.18;;
29854;SDS011;16733;48.738;9.106;2022-11-06T07:46:00;11.40;;;5.53;;
29854;SDS011;16733;48.738;9.106;2022-11-06T07:48:27;7.80;;;5.40;;
29854;SDS011;16733;48.738;9.106;2022-11-06T07:50:53;10.18;;;5.50;;
29854;SDS011;16733;48.738;9.106;2022-11-06T07:53:19;15.15;;;5.45;;
29854;SDS011;16733;48.738;9.106;2022-11-06T07:55:48;8.82;;;5.05;;
29854;SDS011;16733;48.738;9.106;2022-11-06T07:58:14;8.20;;;5.30;;
29854;SDS011;16733;48.738;9.106;2022-11-06T08:07:24;12.23;;;6.15;;
29854;SDS011;16733;48.738;9.106;2022-11-06T08:09:50;10.65;;;5.72;;
29854;SDS011;16733;48.738;9.106;2022-11-06T08:15:38;11.77;;;6.13;;
29854;SDS011;16733;48.738;9.106;2022-11-06T08:18:07;11.63;;;6.75;;
29854;SDS011;16733;48.738;9.106;2022-11-06T08:23:56;9.77;;;5.63;;
29854;SDS011;16733;48.738;9.106;2022-11-06T08:26:21;9.52;;;6.22;;
29854;SDS011;16733;48.738;9.106;2022-11-06T08:32:09;9.15;;;5.50;;
29854;SDS011;16733;48.738;9.106;2022-11-06T08:34:34;12.20;;;6.53;;
29854;SDS011;16733;48.738;9.106;2022-11-06T08:37:00;13.38;;;6.57;;
29854;SDS011;16733;48.738;9.106;2022-11-06T08:39:26;13.23;;;6.15;;
29854;SDS011;16733;48.738;9.106;2022-11-06T08:41:51;16.05;;;7.60;;
29854;SDS011;16733;48.738;9.106;2022-11-06T08:44:17;12.40;;;7.05;;
29854;SDS011;16733;48.738;9.106;2022-11-06T08:46:43;12.88;;;6.13;;
29854;SDS011;16733;48.738;9.106;2022-11-06T08:49:09;13.68;;;6.43;;
29854;SDS011;16733;48.738;9.106;2022-11-06T08:51:34;12.50;;;6.70;;
29854;SDS011;16733;48.738;9.106;2022-11-06T08:57:22;10.73;;;5.75;;
29854;SDS011;16733;48.738;9.106;2022-11-06T08:59:48;12.07;;;7.90;;
29854;SDS011;16733;48.738;9.106;2022-11-06T09:05:37;15.50;;;6.10;;
29854;SDS011;16733;48.738;9.106;2022-11-06T09:08:05;9.80;;;6.20;;
29854;SDS011;16733;48.738;9.106;2022-11-06T09:10:31;11.27;;;6.70;;
29854;SDS011;16733;48.738;9.106;2022-11-06T09:12:57;9.82;;;5.80;;
29854;SDS011;16733;48.738;9.106;2022-11-06T09:15:23;10.80;;;5.93;;
29854;SDS011;16733;48.738;9.106;2022-11-06T09:17:49;11.68;;;6.47;;
29854;SDS011;16733;48.738;9.106;2022-11-06T09:20:17;8.52;;;5.03;;
29854;SDS011;16733;48.738;9.106;2022-11-06T09:22:44;9.15;;;5.88;;
29854;SDS011;16733;48.738;9.106;2022-11-06T09:25:11;12.02;;;5.53;;
29854;SDS011;16733;48.738;9.106;2022-11-06T09:27:44;7.45;;;5.28;;
29854;SDS011;16733;48.738;9.106;2022-11-06T09:30:11;8.13;;;5.03;;
29854;SDS011;16733;48.738;9.106;2022-11-06T09:32:39;6.30;;;4.28;;
29854;SDS011;16733;48.738;9.106;2022-11-06T09:35:13;6.88;;;4.47;;
29854;SDS011;16733;48.738;9.106;2022-11-06T09:37:39;8.00;;;4.18;;
29854;SDS011;16733;48.738;9.106;2022-11-06T09:40:05;5.20;;;3.58;;
29854;SDS011;16733;48.738;9.106;2022-11-06T09:45:21;5.57;;;3.63;;
29854;SDS011;16733;48.738;9.106;2022-11-06T09:47:53;6.15;;;3.88;;
29854;SDS011;16733;48.738;9.106;2022-11-06T09:50:49;8.50;;;4.18;;
29854;SDS011;16733;48.738;9.106;2022-11-06T09:53:18;7.45;;;3.83;;
29854;SDS011;16733;48.738;9.106;2022-11-06T09:55:49;6.85;;;4.38;;
29854;SDS011;16733;48.738;9.106;2022-11-06T10:01:43;4.85;;;3.13;;
29854;SDS011;16733;48.738;9.106;2022-11-06T10:04:23;6.10;;;3.83;;
29854;SDS011;16733;48.738;9.106;2022-11-06T10:06:57;5.38;;;3.33;;
29854;SDS011;16733;48.738;9.106;2022-11-06T10:09:22;6.18;;;3.22;;
29854;SDS011;16733;48.738;9.106;2022-11-06T10:17:07;6.70;;;3.10;;
29854;SDS011;16733;48.738;9.106;2022-11-06T10:19:48;4.63;;;2.95;;
29854;SDS011;16733;48.738;9.106;2022-11-06T10:22:35;6.03;;;2.95;;
29854;SDS011;16733;48.738;9.106;2022-11-06T10:30:17;7.03;;;3.25;;
29854;SDS011;16733;48.738;9.106;2022-11-06T10:38:56;3.97;;;2.65;;
29854;SDS011;16733;48.738;9.106;2022-11-06T10:41:28;4.25;;;2.70;;
29854;SDS011;16733;48.738;9.106;2022-11-06T10:49:22;3.95;;;2.35;;
29854;SDS011;16733;48.738;9.106;2022-11-06T10:55:35;4.05;;;2.55;;
29854;SDS011;16733;48.738;9.106;2022-11-06T10:58:06;5.65;;;2.38;;
29854;SDS011;16733;48.738;9.106;2022-11-06T11:00:36;2.92;;;2.08;;
29854;SDS011;16733;48.738;9.106;2022-11-06T11:03:04;3.60;;;2.00;;
29854;SDS011;16733;48.738;9.106;2022-11-06T11:05:41;3.58;;;2.42;;
29854;SDS011;16733;48.738;9.106;2022-11-06T11:11:04;2.83;;;2.30;;
29854;SDS011;16733;48.738;9.106;2022-11-06T11:14:11;3.35;;;2.45;;
29854;SDS011;16733;48.738;9.106;2022-11-06T11:16:39;4.50;;;2.63;;
29854;SDS011;16733;48.738;9.106;2022-11-06T11:21:56;6.30;;;2.55;;
29854;SDS011;16733;48.738;9.106;2022-11-06T11:24:23;3.38;;;2.78;;
29854;SDS011;16733;48.738;9.106;2022-11-06T11:33:33;3.53;;;2.85;;
29854;SDS011;16733;48.738;9.106;2022-11-06T11:36:00;6.20;;;2.85;;
29854;SDS011;16733;48.738;9.106;2022-11-06T11:41:51;6.00;;;3.08;;
29854;SDS011;16733;48.738;9.106;2022-11-06T11:44:17;5.40;;;2.40;;
29854;SDS011;16733;48.738;9.106;2022-11-06T11:52:41;4.00;;;2.83;;
29854;SDS011;16733;48.738;9.106;2022-11-06T11:58:30;5.43;;;3.35;;
29854;SDS011;16733;48.738;9.106;2022-11-06T12:00:57;5.35;;;3.20;;
29854;SDS011;16733;48.738;9.106;2022-11-06T12:06:56;6.25;;;3.50;;
29854;SDS011;16733;48.738;9.106;2022-11-06T12:09:28;6.85;;;3.33;;
29854;SDS011;16733;48.738;9.106;2022-11-06T12:11:57;6.22;;;2.63;;
29854;SDS011;16733;48.738;9.106;2022-11-06T12:14:25;5.68;;;2.60;;
29854;SDS011;16733;48.738;9.106;2022-11-06T12:17:10;4.32;;;2.40;;
29854;SDS011;16733;48.738;9.106;2022-11-06T12:19:38;4.65;;;2.63;;
29854;SDS011;16733;48.738;9.106;2022-11-06T12:25:08;3.30;;;2.70;;
29854;SDS011;16733;48.738;9.106;2022-11-06T12:27:36;4.32;;;2.95;;
29854;SDS011;16733;48.738;9.106;2022-11-06T12:30:11;3.30;;;2.65;;
29854;SDS011;16733;48.738;9.106;2022-11-06T12:32:55;4.50;;;2.75;;
29854;SDS011;16733;48.738;9.106;2022-11-06T12:48:48;4.95;;;3.35;;
29854;SDS011;16733;48.738;9.106;2022-11-06T12:57:26;6.95;;;3.25;;
29854;SDS011;16733;48.738;9.106;2022-11-06T13:00:29;6.82;;;3.25;;
29854;SDS011;16733;48.738;9.106;2022-11-06T13:03:29;5.15;;;3.38;;
29854;SDS011;16733;48.738;9.106;2022-11-06T13:09:32;5.80;;;3.40;;
29854;SDS011;16733;48.738;9.106;2022-11-06T13:18:14;5.20;;;2.83;;
29854;SDS011;16733;48.738;9.106;2022-11-06T13:20:44;5.93;;;3.17;;
29854;SDS011;16733;48.738;9.106;2022-11-06T13:23:27;6.28;;;2.92;;
29854;SDS011;16733;48.738;9.106;2022-11-06T13:28:43;5.00;;;2.97;;
29854;SDS011;16733;48.738;9.106;2022-11-06T13:32:10;5.23;;;2.97;;
29854;SDS011;16733;48.738;9.106;2022-11-06T13:34:41;5.75;;;2.70;;
29854;SDS011;16733;48.738;9.106;2022-11-06T13:37:18;3.38;;;2.33;;
29854;SDS011;16733;48.738;9.106;2022-11-06T13:39:53;4.30;;;2.92;;
29854;SDS011;16733;48.738;9.106;2022-11-06T13:42:28;4.72;;;2.58;;
29854;SDS011;16733;48.738;9.106;2022-11-06T13:45:00;5.15;;;2.60;;
29854;SDS011;16733;48.738;9.106;2022-11-06T13:47:40;4.82;;;2.60;;
29854;SDS011;16733;48.738;9.106;2022-11-06T13:50:45;4.85;;;2.40;;
29854;SDS011;16733;48.738;9.106;2022-11-06T13:53:19;3.47;;;2.25;;
29854;SDS011;16733;48.738;9.106;2022-11-06T13:58:53;4.53;;;2.45;;
29854;SDS011;16733;48.738;9.106;2022-11-06T14:04:24;3.22;;;1.90;;
29854;SDS011;16733;48.738;9.106;2022-11-06T14:06:46;2.72;;;2.10;;
29854;SDS011;16733;48.738;9.106;2022-11-06T14:09:17;3.33;;;2.42;;
29854;SDS011;16733;48.738;9.106;2022-11-06T14:11:50;2.22;;;1.50;;
29854;SDS011;16733;48.738;9.106;2022-11-06T14:16:43;2.55;;;1.70;;
29854;SDS011;16733;48.738;9.106;2022-11-06T14:19:10;2.13;;;1.67;;
29854;SDS011;16733;48.738;9.106;2022-11-06T14:24:52;2.45;;;1.50;;
29854;SDS011;16733;48.738;9.106;2022-11-06T14:38:09;1.60;;;1.38;;
29854;SDS011;16733;48.738;9.106;2022-11-06T14:40:41;2.28;;;1.80;;
29854;SDS011;16733;48.738;9.106;2022-11-06T14:43:10;2.45;;;1.52;;
29854;SDS011;16733;48.738;9.106;2022-11-06T14:45:56;4.30;;;2.38;;
29854;SDS011;16733;48.738;9.106;2022-11-06T14:48:42;4.28;;;3.08;;
29854;SDS011;16733;48.738;9.106;2022-11-06T14:54:34;5.22;;;3.30;;
29854;SDS011;16733;48.738;9.106;2022-11-06T14:57:01;5.97;;;3.83;;
29854;SDS011;16733;48.738;9.106;2022-11-06T14:59:34;6.57;;;3.80;;
29854;SDS011;16733;48.738;9.106;2022-11-06T15:02:09;6.28;;;3.60;;
29854;SDS011;16733;48.738;9.106;2022-11-06T15:04:41;7.35;;;3.92;;
29854;SDS011;16733;48.738;9.106;2022-11-06T15:07:25;7.13;;;3.83;;
29854;SDS011;16733;48.738;9.106;2022-11-06T15:10:03;6.43;;;3.75;;
29854;SDS011;16733;48.738;9.106;2022-11-06T15:15:54;5.13;;;3.53;;
29854;SDS011;16733;48.738;9.106;2022-11-06T15:18:25;5.05;;;3.47;;
29854;SDS011;16733;48.738;9.106;2022-11-06T15:20:55;6.05;;;3.70;;
29854;SDS011;16733;48.738;9.106;2022-11-06T15:26:21;5.75;;;3.78;;
29854;SDS011;16733;48.738;9.106;2022-11-06T15:28:56;5.78;;;3.53;;
29854;SDS011;16733;48.738;9.106;2022-11-06T15:31:34;5.07;;;3.10;;
29854;SDS011;16733;48.738;9.106;2022-11-06T15:37:01;8.25;;;3.65;;
29854;SDS011;16733;48.738;9.106;2022-11-06T15:39:39;7.50;;;3.55;;
29854;SDS011;16733;48.738;9.106;2022-11-06T15:45:28;10.80;;;4.93;;
29854;SDS011;16733;48.738;9.106;2022-11-06T15:48:01;5.03;;;3.30;;
29854;SDS011;16733;48.738;9.106;2022-11-06T15:53:52;3.75;;;2.88;;
29854;SDS011;16733;48.738;9.106;2022-11-06T15:56:19;5.78;;;3.75;;
29854;SDS011;16733;48.738;9.106;2022-11-06T16:02:13;4.78;;;3.30;;
29854;SDS011;16733;48.738;9.106;2022-11-06T16:04:43;7.68;;;3.53;;
29854;SDS011;16733;48.738;9.106;2022-11-06T16:10:33;4.70;;;2.83;;
29854;SDS011;16733;48.738;9.106;2022-11-06T16:13:01;5.10;;;3.20;;
29854;SDS011;16733;48.738;9.106;2022-11-06T16:20:44;9.75;;;6.10;;
29854;SDS011;16733;48.738;9.106;2022-11-06T16:23:15;6.97;;;4.50;;
29854;SDS011;16733;48.738;9.106;2022-11-06T16:25:44;6.65;;;4.00;;
29854;SDS011;16733;48.738;9.106;2022-11-06T16:31:31;5.57;;;3.88;;
29854;SDS011;16733;48.738;9.106;2022-11-06T16:36:28;3.72;;;2.78;;
29854;SDS011;16733;48.738;9.106;2022-11-06T16:50:47;9.20;;;3.72;;
29854;SDS011;16733;48.738;9.106;2022-11-06T16:56:39;7.28;;;2.90;;
29854;SDS011;16733;48.738;9.106;2022-11-06T16:59:05;4.30;;;2.83;;
29854;SDS011;16733;48.738;9.106;2022-11-06T17:01:40;4.47;;;3.00;;
29854;SDS011;16733;48.738;9.106;2022-11-06T17:04:21;6.05;;;3.30;;
29854;SDS011;16733;48.738;9.106;2022-11-06T17:06:50;5.30;;;3.50;;
29854;SDS011;16733;48.738;9.106;2022-11-06T17:09:30;8.15;;;3.20;;
29854;SDS011;16733;48.738;9.106;2022-11-06T17:11:58;4.53;;;3.20;;
29854;SDS011;16733;48.738;9.106;2022-11-06T17:14:24;5.38;;;3.13;;
29854;SDS011;16733;48.738;9.106;2022-11-06T17:19:17;4.60;;;3.30;;
29854;SDS011;16733;48.738;9.106;2022-11-06T17:21:44;4.85;;;3.13;;
29854;SDS011;16733;48.738;9.106;2022-11-06T17:24:09;6.72;;;3.60;;
29854;SDS011;16733;48.738;9.106;2022-11-06T17:29:57;5.07;;;3.58;;
29854;SDS011;16733;48.738;9.106;2022-11-06T17:32:23;3.75;;;3.05;;
29854;SDS011;16733;48.738;9.106;2022-11-06T17:38:11;4.00;;;2.80;;
29854;SDS011;16733;48.738;9.106;2022-11-06T17:40:38;3.63;;;3.03;;
29854;SDS011;16733;48.738;9.106;2022-11-06T17:46:31;5.97;;;3.47;;
29854;SDS011;16733;48.738;9.106;2022-11-06T17:48:58;4.38;;;3.10;;
29854;SDS011;16733;48.738;9.106;2022-11-06T17:54:48;5.88;;;2.70;;
29854;SDS011;16733;48.738;9.106;2022-11-06T17:57:13;4.40;;;2.80;;
29854;SDS011;16733;48.738;9.106;2022-11-06T18:03:01;4.75;;;2.70;;
29854;SDS011;16733;48.738;9.106;2022-11-06T18:05:27;3.83;;;2.72;;
29854;SDS011;16733;48.738;9.106;2022-11-06T18:07:55;4.30;;;2.42;;
29854;SDS011;16733;48.738;9.106;2022-11-06T18:10:21;3.60;;;2.47;;
29854;SDS011;16733;48.738;9.106;2022-11-06T18:12:47;4.13;;;2.55;;
29854;SDS011;16733;48.738;9.106;2022-11-06T18:15:15;3.15;;;2.20;;
29854;SDS011;16733;48.738;9.106;2022-11-06T18:17:41;3.30;;;2.33;;
29854;SDS011;16733;48.738;9.106;2022-11-06T18:26:51;3.13;;;2.20;;
29854;SDS011;16733;48.738;9.106;2022-11-06T18:29:17;5.18;;;3.13;;
29854;SDS011;16733;48.738;9.106;2022-11-06T18:31:43;2.80;;;2.10;;
29854;SDS011;16733;48.738;9.106;2022-11-06T18:34:09;4.00;;;2.80;;
29854;SDS011;16733;48.738;9.106;2022-11-06T18:36:37;2.72;;;2.13;;
29854;SDS011;16733;48.738;9.106;2022-11-06T18:39:03;3.97;;;2.67;;
29854;SDS011;16733;48.738;9.106;2022-11-06T18:41:29;3.28;;;2.42;;
29854;SDS011;16733;48.738;9.106;2022-11-06T18:43:56;2.78;;;2.03;;
29854;SDS011;16733;48.738;9.106;2022-11-06T18:46:22;2.25;;;1.92;;
29854;SDS011;16733;48.738;9.106;2022-11-06T18:48:48;3.20;;;2.00;;
29854;SDS011;16733;48.738;9.106;2022-11-06T18:51:15;5.60;;;2.20;;
29854;SDS011;16733;48.738;9.106;2022-11-06T18:53:42;3.00;;;2.25;;
29854;SDS011;16733;48.738;9.106;2022-11-06T18:56:23;2.40;;;1.98;;
29854;SDS011;16733;48.738;9.106;2022-11-06T18:58:49;5.82;;;3.42;;
29854;SDS011;16733;48.738;9.106;2022-11-06T19:01:15;3.50;;;2.38;;
29854;SDS011;16733;48.738;9.106;2022-11-06T19:03:43;4.03;;;2.15;;
29854;SDS011;16733;48.738;9.106;2022-11-06T19:06:11;7.60;;;2.60;;
29854;SDS011;16733;48.738;9.106;2022-11-06T19:08:38;3.13;;;2.30;;
29854;SDS011;16733;48.738;9.106;2022-11-06T19:11:05;6.10;;;2.25;;
29854;SDS011;16733;48.738;9.106;2022-11-06T19:13:32;5.70;;;2.40;;
29854;SDS011;16733;48.738;9.106;2022-11-06T19:15:58;4.03;;;2.25;;
29854;SDS011;16733;48.738;9.106;2022-11-06T19:18:31;2.72;;;1.88;;
29854;SDS011;16733;48.738;9.106;2022-11-06T19:24:20;3.28;;;1.90;;
29854;SDS011;16733;48.738;9.106;2022-11-06T19:26:45;3.40;;;2.20;;
29854;SDS011;16733;48.738;9.106;2022-11-06T19:32:33;3.90;;;2.35;;
29854;SDS011;16733;48.738;9.106;2022-11-06T19:34:59;4.75;;;3.40;;
29854;SDS011;16733;48.738;9.106;2022-11-06T19:37:24;5.18;;;2.10;;
29854;SDS011;16733;48.738;9.106;2022-11-06T19:39:51;3.78;;;2.20;;
29854;SDS011;16733;48.738;9.106;2022-11-06T19:42:20;5.05;;;2.05;;
29854;SDS011;16733;48.738;9.106;2022-11-06T19:44:46;3.17;;;2.50;;
29854;SDS011;16733;48.738;9.106;2022-11-06T19:47:11;5.47;;;2.50;;
29854;SDS011;16733;48.738;9.106;2022-11-06T19:49:37;5.30;;;2.80;;
29854;SDS011;16733;48.738;9.106;2022-11-06T19:52:03;5.15;;;3.03;;
29854;SDS011;16733;48.738;9.106;2022-11-06T19:54:28;2.72;;;1.80;;
29854;SDS011;16733;48.738;9.106;2022-11-06T19:56:54;4.22;;;2.70;;
29854;SDS011;16733;48.738;9.106;2022-11-06T19:59:20;4.22;;;2.80;;
29854;SDS011;16733;48.738;9.106;2022-11-06T20:08:31;2.38;;;2.05;;
29854;SDS011;16733;48.738;9.106;2022-11-06T20:11:07;4.60;;;2.00;;
29854;SDS011;16733;48.738;9.106;2022-11-06T20:16:58;2.90;;;2.10;;
29854;SDS011;16733;48.738;9.106;2022-11-06T20:22:46;2.80;;;1.80;;
29854;SDS011;16733;48.738;9.106;2022-11-06T20:25:11;2.53;;;1.90;;
29854;SDS011;16733;48.738;9.106;2022-11-06T20:27:37;2.33;;;1.52;;
29854;SDS011;16733;48.738;9.106;2022-11-06T20:30:04;2.10;;;1.42;;
29854;SDS011;16733;48.738;9.106;2022-11-06T20:32:31;2.30;;;1.70;;
29854;SDS011;16733;48.738;9.106;2022-11-06T20:34:58;2.05;;;1.70;;
29854;SDS011;16733;48.738;9.106;2022-11-06T20:37:23;2.92;;;2.15;;
29854;SDS011;16733;48.738;9.106;2022-11-06T20:39:50;2.53;;;1.50;;
29854;SDS011;16733;48.738;9.106;2022-11-06T20:45:38;2.03;;;1.27;;
29854;SDS011;16733;48.738;9.106;2022-11-06T20:48:03;2.00;;;1.20;;
29854;SDS011;16733;48.738;9.106;2022-11-06T20:53:53;0.93;;;0.90;;
29854;SDS011;16733;48.738;9.106;2022-11-06T20:56:19;1.25;;;1.05;;
29854;SDS011;16733;48.738;9.106;2022-11-06T21:02:09;1.83;;;0.90;;
29854;SDS011;16733;48.738;9.106;2022-11-06T21:04:35;2.25;;;1.00;;
29854;SDS011;16733;48.738;9.106;2022-11-06T21:07:01;1.75;;;1.00;;
29854;SDS011;16733;48.738;9.106;2022-11-06T21:09:26;1.80;;;1.08;;
29854;SDS011;16733;48.738;9.106;2022-11-06T21:11:52;4.07;;;1.00;;
29854;SDS011;16733;48.738;9.106;2022-11-06T21:21:02;1.65;;;0.98;;
29854;SDS011;16733;48.738;9.106;2022-11-06T21:23:33;1.63;;;1.00;;
29854;SDS011;16733;48.738;9.106;2022-11-06T21:29:22;4.97;;;0.88;;
29854;SDS011;16733;48.738;9.106;2022-11-06T21:31:48;1.35;;;0.95;;
29854;SDS011;16733;48.738;9.106;2022-11-06T21:37:37;3.17;;;1.60;;